sensor_id;sensor_type;location;lat;lon;timestamp;P1;durP1;ratioP1;P2;durP2;ratioP2
15573;SDS011;7888;46.748;8.102;2023-04-24T00:00:13;0.30;;;0.30;;
15573;SDS011;7888;46.748;8.102;2023-04-24T00:02:43;0.60;;;0.40;;
15573;SDS011;7888;46.748;8.102;2023-04-24T00:05:12;0.40;;;0.40;;
15573;SDS011;7888;46.748;8.102;2023-04-24T00:07:39;0.43;;;0.40;;
15573;SDS011;7888;46.748;8.102;2023-04-24T00:10:10;0.53;;;0.30;;
15573;SDS011;7888;46.748;8.102;2023-04-24T00:12:37;0.63;;;0.30;;
15573;SDS011;7888;46.748;8.102;2023-04-24T00:15:03;0.77;;;0.40;;
15573;SDS011;7888;46.748;8.102;2023-04-24T00:17:30;1.40;;;0.43;;
15573;SDS011;7888;46.748;8.102;2023-04-24T00:19:56;1.23;;;0.40;;
15573;SDS011;7888;46.748;8.102;2023-04-24T00:22:25;1.00;;;0.37;;
15573;SDS011;7888;46.748;8.102;2023-04-24T00:24:55;1.03;;;0.40;;
15573;SDS011;7888;46.748;8.102;2023-04-24T00:27:22;1.03;;;0.60;;
15573;SDS011;7888;46.748;8.102;2023-04-24T00:29:48;0.33;;;0.33;;
15573;SDS011;7888;46.748;8.102;2023-04-24T00:32:14;0.40;;;0.40;;
15573;SDS011;7888;46.748;8.102;2023-04-24T00:34:41;1.17;;;0.50;;
15573;SDS011;7888;46.748;8.102;2023-04-24T00:37:07;0.30;;;0.30;;
15573;SDS011;7888;46.748;8.102;2023-04-24T00:39:33;1.33;;;0.40;;
15573;SDS011;7888;46.748;8.102;2023-04-24T00:42:00;1.00;;;0.50;;
15573;SDS011;7888;46.748;8.102;2023-04-24T00:44:26;2.23;;;0.57;;
15573;SDS011;7888;46.748;8.102;2023-04-24T00:46:53;0.40;;;0.40;;
15573;SDS011;7888;46.748;8.102;2023-04-24T00:49:20;0.80;;;0.40;;
15573;SDS011;7888;46.748;8.102;2023-04-24T00:51:47;0.73;;;0.40;;
15573;SDS011;7888;46.748;8.102;2023-04-24T00:54:14;0.93;;;0.40;;
15573;SDS011;7888;46.748;8.102;2023-04-24T00:56:41;0.57;;;0.40;;
15573;SDS011;7888;46.748;8.102;2023-04-24T00:59:08;0.50;;;0.50;;
15573;SDS011;7888;46.748;8.102;2023-04-24T01:01:35;0.40;;;0.40;;
15573;SDS011;7888;46.748;8.102;2023-04-24T01:04:01;0.53;;;0.30;;
15573;SDS011;7888;46.748;8.102;2023-04-24T01:06:27;0.40;;;0.33;;
15573;SDS011;7888;46.748;8.102;2023-04-24T01:08:56;0.40;;;0.40;;
15573;SDS011;7888;46.748;8.102;2023-04-24T01:11:24;0.30;;;0.30;;
15573;SDS011;7888;46.748;8.102;2023-04-24T01:13:50;0.40;;;0.30;;
15573;SDS011;7888;46.748;8.102;2023-04-24T01:16:17;0.13;;;0.13;;
15573;SDS011;7888;46.748;8.102;2023-04-24T01:18:45;1.40;;;0.30;;
15573;SDS011;7888;46.748;8.102;2023-04-24T01:21:13;1.17;;;0.30;;
15573;SDS011;7888;46.748;8.102;2023-04-24T01:23:42;0.20;;;0.20;;
15573;SDS011;7888;46.748;8.102;2023-04-24T01:26:09;0.20;;;0.20;;
15573;SDS011;7888;46.748;8.102;2023-04-24T01:28:35;0.30;;;0.30;;
15573;SDS011;7888;46.748;8.102;2023-04-24T01:31:02;0.20;;;0.20;;
15573;SDS011;7888;46.748;8.102;2023-04-24T01:33:28;0.20;;;0.20;;
15573;SDS011;7888;46.748;8.102;2023-04-24T01:35:54;0.40;;;0.20;;
15573;SDS011;7888;46.748;8.102;2023-04-24T01:38:20;0.10;;;0.10;;
15573;SDS011;7888;46.748;8.102;2023-04-24T01:40:46;0.40;;;0.23;;
15573;SDS011;7888;46.748;8.102;2023-04-24T01:43:12;0.40;;;0.20;;
15573;SDS011;7888;46.748;8.102;2023-04-24T01:45:38;0.30;;;0.20;;
15573;SDS011;7888;46.748;8.102;2023-04-24T01:48:04;0.47;;;0.23;;
15573;SDS011;7888;46.748;8.102;2023-04-24T01:50:30;0.40;;;0.10;;
15573;SDS011;7888;46.748;8.102;2023-04-24T01:52:57;1.77;;;0.27;;
15573;SDS011;7888;46.748;8.102;2023-04-24T01:55:22;0.87;;;0.20;;
15573;SDS011;7888;46.748;8.102;2023-04-24T01:57:48;0.87;;;0.13;;
15573;SDS011;7888;46.748;8.102;2023-04-24T02:00:17;0.30;;;0.10;;
15573;SDS011;7888;46.748;8.102;2023-04-24T02:02:42;0.30;;;0.30;;
15573;SDS011;7888;46.748;8.102;2023-04-24T02:05:10;0.20;;;0.20;;
15573;SDS011;7888;46.748;8.102;2023-04-24T02:07:36;0.10;;;0.10;;
15573;SDS011;7888;46.748;8.102;2023-04-24T02:10:02;1.13;;;0.20;;
15573;SDS011;7888;46.748;8.102;2023-04-24T02:12:29;0.20;;;0.20;;
15573;SDS011;7888;46.748;8.102;2023-04-24T02:14:55;0.93;;;0.20;;
15573;SDS011;7888;46.748;8.102;2023-04-24T02:17:21;0.20;;;0.20;;
15573;SDS011;7888;46.748;8.102;2023-04-24T02:19:47;0.20;;;0.20;;
15573;SDS011;7888;46.748;8.102;2023-04-24T02:22:13;1.77;;;0.20;;
15573;SDS011;7888;46.748;8.102;2023-04-24T02:24:39;0.20;;;0.17;;
15573;SDS011;7888;46.748;8.102;2023-04-24T02:27:05;0.20;;;0.20;;
15573;SDS011;7888;46.748;8.102;2023-04-24T02:29:31;0.87;;;0.20;;
15573;SDS011;7888;46.748;8.102;2023-04-24T02:31:57;0.20;;;0.20;;
15573;SDS011;7888;46.748;8.102;2023-04-24T02:34:23;0.20;;;0.13;;
15573;SDS011;7888;46.748;8.102;2023-04-24T02:36:50;0.40;;;0.17;;
15573;SDS011;7888;46.748;8.102;2023-04-24T02:39:16;0.10;;;0.10;;
15573;SDS011;7888;46.748;8.102;2023-04-24T02:41:42;0.30;;;0.10;;
15573;SDS011;7888;46.748;8.102;2023-04-24T02:44:08;0.97;;;0.20;;
15573;SDS011;7888;46.748;8.102;2023-04-24T02:46:34;0.20;;;0.10;;
15573;SDS011;7888;46.748;8.102;2023-04-24T02:49:00;0.57;;;0.20;;
15573;SDS011;7888;46.748;8.102;2023-04-24T02:51:26;1.13;;;0.20;;
15573;SDS011;7888;46.748;8.102;2023-04-24T02:53:52;0.70;;;0.20;;
15573;SDS011;7888;46.748;8.102;2023-04-24T02:56:18;0.70;;;0.30;;
15573;SDS011;7888;46.748;8.102;2023-04-24T02:58:44;0.63;;;0.30;;
15573;SDS011;7888;46.748;8.102;2023-04-24T03:01:09;1.10;;;0.20;;
15573;SDS011;7888;46.748;8.102;2023-04-24T03:03:36;0.20;;;0.20;;
15573;SDS011;7888;46.748;8.102;2023-04-24T03:06:03;0.10;;;0.10;;
15573;SDS011;7888;46.748;8.102;2023-04-24T03:08:31;0.30;;;0.10;;
15573;SDS011;7888;46.748;8.102;2023-04-24T03:10:57;1.53;;;0.27;;
15573;SDS011;7888;46.748;8.102;2023-04-24T03:13:23;0.07;;;0.07;;
15573;SDS011;7888;46.748;8.102;2023-04-24T03:15:49;0.23;;;0.13;;
15573;SDS011;7888;46.748;8.102;2023-04-24T03:18:15;0.77;;;0.10;;
15573;SDS011;7888;46.748;8.102;2023-04-24T03:20:40;0.63;;;0.23;;
15573;SDS011;7888;46.748;8.102;2023-04-24T03:23:06;1.23;;;0.20;;
15573;SDS011;7888;46.748;8.102;2023-04-24T03:25:32;0.20;;;0.20;;
15573;SDS011;7888;46.748;8.102;2023-04-24T03:27:58;0.47;;;0.10;;
15573;SDS011;7888;46.748;8.102;2023-04-24T03:30:24;0.50;;;0.50;;
15573;SDS011;7888;46.748;8.102;2023-04-24T03:32:49;0.10;;;0.10;;
15573;SDS011;7888;46.748;8.102;2023-04-24T03:35:15;0.20;;;0.20;;
15573;SDS011;7888;46.748;8.102;2023-04-24T03:37:41;0.30;;;0.10;;
15573;SDS011;7888;46.748;8.102;2023-04-24T03:40:07;0.20;;;0.20;;
15573;SDS011;7888;46.748;8.102;2023-04-24T03:42:34;0.23;;;0.10;;
15573;SDS011;7888;46.748;8.102;2023-04-24T03:44:59;0.10;;;0.10;;
15573;SDS011;7888;46.748;8.102;2023-04-24T03:47:25;0.10;;;0.10;;
15573;SDS011;7888;46.748;8.102;2023-04-24T03:49:51;2.27;;;0.30;;
15573;SDS011;7888;46.748;8.102;2023-04-24T03:52:17;0.20;;;0.20;;
15573;SDS011;7888;46.748;8.102;2023-04-24T03:54:43;0.30;;;0.17;;
15573;SDS011;7888;46.748;8.102;2023-04-24T03:57:09;0.20;;;0.20;;
15573;SDS011;7888;46.748;8.102;2023-04-24T03:59:35;0.10;;;0.10;;
15573;SDS011;7888;46.748;8.102;2023-04-24T04:02:00;0.10;;;0.10;;
15573;SDS011;7888;46.748;8.102;2023-04-24T04:04:26;0.93;;;0.20;;
15573;SDS011;7888;46.748;8.102;2023-04-24T04:06:52;0.30;;;0.20;;
15573;SDS011;7888;46.748;8.102;2023-04-24T04:09:18;0.70;;;0.17;;
15573;SDS011;7888;46.748;8.102;2023-04-24T04:11:44;0.13;;;0.13;;
15573;SDS011;7888;46.748;8.102;2023-04-24T04:14:10;0.67;;;0.30;;
15573;SDS011;7888;46.748;8.102;2023-04-24T04:16:36;3.10;;;0.20;;
15573;SDS011;7888;46.748;8.102;2023-04-24T04:19:02;0.37;;;0.20;;
15573;SDS011;7888;46.748;8.102;2023-04-24T04:21:28;0.53;;;0.30;;
15573;SDS011;7888;46.748;8.102;2023-04-24T04:23:55;0.20;;;0.20;;
15573;SDS011;7888;46.748;8.102;2023-04-24T04:26:21;0.30;;;0.10;;
15573;SDS011;7888;46.748;8.102;2023-04-24T04:28:51;0.17;;;0.10;;
15573;SDS011;7888;46.748;8.102;2023-04-24T04:31:19;0.13;;;0.13;;
15573;SDS011;7888;46.748;8.102;2023-04-24T04:33:46;0.10;;;0.10;;
15573;SDS011;7888;46.748;8.102;2023-04-24T04:36:11;0.10;;;0.10;;
15573;SDS011;7888;46.748;8.102;2023-04-24T04:38:37;0.10;;;0.10;;
15573;SDS011;7888;46.748;8.102;2023-04-24T04:41:05;0.47;;;0.43;;
15573;SDS011;7888;46.748;8.102;2023-04-24T04:43:32;0.50;;;0.30;;
15573;SDS011;7888;46.748;8.102;2023-04-24T04:45:59;0.20;;;0.20;;
15573;SDS011;7888;46.748;8.102;2023-04-24T04:48:26;0.20;;;0.20;;
15573;SDS011;7888;46.748;8.102;2023-04-24T04:50:52;1.17;;;0.20;;
15573;SDS011;7888;46.748;8.102;2023-04-24T04:53:18;0.50;;;0.30;;
15573;SDS011;7888;46.748;8.102;2023-04-24T04:55:44;0.23;;;0.20;;
15573;SDS011;7888;46.748;8.102;2023-04-24T04:58:11;0.30;;;0.20;;
15573;SDS011;7888;46.748;8.102;2023-04-24T05:00:37;0.63;;;0.20;;
15573;SDS011;7888;46.748;8.102;2023-04-24T05:03:03;1.73;;;0.50;;
15573;SDS011;7888;46.748;8.102;2023-04-24T05:05:29;0.27;;;0.27;;
15573;SDS011;7888;46.748;8.102;2023-04-24T05:07:54;0.30;;;0.23;;
15573;SDS011;7888;46.748;8.102;2023-04-24T05:10:20;0.23;;;0.20;;
15573;SDS011;7888;46.748;8.102;2023-04-24T05:12:46;0.20;;;0.20;;
15573;SDS011;7888;46.748;8.102;2023-04-24T05:15:12;0.53;;;0.30;;
15573;SDS011;7888;46.748;8.102;2023-04-24T05:17:38;0.20;;;0.20;;
15573;SDS011;7888;46.748;8.102;2023-04-24T05:20:05;0.30;;;0.20;;
15573;SDS011;7888;46.748;8.102;2023-04-24T05:22:32;0.70;;;0.50;;
15573;SDS011;7888;46.748;8.102;2023-04-24T05:24:58;0.40;;;0.40;;
15573;SDS011;7888;46.748;8.102;2023-04-24T05:27:24;0.70;;;0.30;;
15573;SDS011;7888;46.748;8.102;2023-04-24T05:29:50;0.50;;;0.40;;
15573;SDS011;7888;46.748;8.102;2023-04-24T05:32:16;1.83;;;0.33;;
15573;SDS011;7888;46.748;8.102;2023-04-24T05:34:42;0.50;;;0.50;;
15573;SDS011;7888;46.748;8.102;2023-04-24T05:37:08;1.00;;;0.50;;
15573;SDS011;7888;46.748;8.102;2023-04-24T05:39:35;0.50;;;0.43;;
15573;SDS011;7888;46.748;8.102;2023-04-24T05:42:01;0.60;;;0.50;;
15573;SDS011;7888;46.748;8.102;2023-04-24T05:44:29;0.30;;;0.30;;
15573;SDS011;7888;46.748;8.102;2023-04-24T05:46:55;0.50;;;0.40;;
15573;SDS011;7888;46.748;8.102;2023-04-24T05:49:21;0.33;;;0.33;;
15573;SDS011;7888;46.748;8.102;2023-04-24T05:51:48;1.40;;;0.60;;
15573;SDS011;7888;46.748;8.102;2023-04-24T05:54:14;1.03;;;0.50;;
15573;SDS011;7888;46.748;8.102;2023-04-24T05:56:40;0.63;;;0.33;;
15573;SDS011;7888;46.748;8.102;2023-04-24T05:59:06;0.63;;;0.50;;
15573;SDS011;7888;46.748;8.102;2023-04-24T06:01:35;0.30;;;0.30;;
15573;SDS011;7888;46.748;8.102;2023-04-24T06:04:02;1.53;;;0.60;;
15573;SDS011;7888;46.748;8.102;2023-04-24T06:06:29;1.10;;;0.40;;
15573;SDS011;7888;46.748;8.102;2023-04-24T06:08:55;0.60;;;0.50;;
15573;SDS011;7888;46.748;8.102;2023-04-24T06:11:21;0.70;;;0.30;;
15573;SDS011;7888;46.748;8.102;2023-04-24T06:13:47;0.20;;;0.20;;
15573;SDS011;7888;46.748;8.102;2023-04-24T06:16:13;0.30;;;0.30;;
15573;SDS011;7888;46.748;8.102;2023-04-24T06:18:39;0.37;;;0.30;;
15573;SDS011;7888;46.748;8.102;2023-04-24T06:21:05;1.90;;;0.20;;
15573;SDS011;7888;46.748;8.102;2023-04-24T06:23:31;0.20;;;0.20;;
15573;SDS011;7888;46.748;8.102;2023-04-24T06:25:58;0.40;;;0.30;;
15573;SDS011;7888;46.748;8.102;2023-04-24T06:28:24;0.30;;;0.30;;
15573;SDS011;7888;46.748;8.102;2023-04-24T06:30:51;0.20;;;0.20;;
15573;SDS011;7888;46.748;8.102;2023-04-24T06:33:17;0.20;;;0.20;;
15573;SDS011;7888;46.748;8.102;2023-04-24T06:35:43;2.43;;;0.30;;
15573;SDS011;7888;46.748;8.102;2023-04-24T06:38:10;0.20;;;0.20;;
15573;SDS011;7888;46.748;8.102;2023-04-24T06:40:36;0.30;;;0.20;;
15573;SDS011;7888;46.748;8.102;2023-04-24T06:43:03;0.17;;;0.17;;
15573;SDS011;7888;46.748;8.102;2023-04-24T06:45:29;0.10;;;0.10;;
15573;SDS011;7888;46.748;8.102;2023-04-24T06:47:55;0.20;;;0.20;;
15573;SDS011;7888;46.748;8.102;2023-04-24T06:50:22;0.10;;;0.10;;
15573;SDS011;7888;46.748;8.102;2023-04-24T06:52:49;0.20;;;0.20;;
15573;SDS011;7888;46.748;8.102;2023-04-24T06:55:15;0.47;;;0.10;;
15573;SDS011;7888;46.748;8.102;2023-04-24T06:57:43;0.83;;;0.23;;
15573;SDS011;7888;46.748;8.102;2023-04-24T07:00:10;0.10;;;0.10;;
15573;SDS011;7888;46.748;8.102;2023-04-24T07:02:37;0.40;;;0.20;;
15573;SDS011;7888;46.748;8.102;2023-04-24T07:05:04;0.20;;;0.20;;
15573;SDS011;7888;46.748;8.102;2023-04-24T07:07:30;0.67;;;0.27;;
15573;SDS011;7888;46.748;8.102;2023-04-24T07:09:56;0.63;;;0.30;;
15573;SDS011;7888;46.748;8.102;2023-04-24T07:12:23;0.63;;;0.50;;
15573;SDS011;7888;46.748;8.102;2023-04-24T07:14:50;0.80;;;0.43;;
15573;SDS011;7888;46.748;8.102;2023-04-24T07:17:16;0.30;;;0.30;;
15573;SDS011;7888;46.748;8.102;2023-04-24T07:19:42;0.43;;;0.30;;
15573;SDS011;7888;46.748;8.102;2023-04-24T07:22:09;0.50;;;0.30;;
15573;SDS011;7888;46.748;8.102;2023-04-24T07:24:41;0.30;;;0.20;;
15573;SDS011;7888;46.748;8.102;2023-04-24T07:27:10;0.20;;;0.10;;
15573;SDS011;7888;46.748;8.102;2023-04-24T07:29:37;0.57;;;0.23;;
15573;SDS011;7888;46.748;8.102;2023-04-24T07:32:03;0.20;;;0.20;;
15573;SDS011;7888;46.748;8.102;2023-04-24T07:34:29;0.20;;;0.20;;
15573;SDS011;7888;46.748;8.102;2023-04-24T07:36:56;0.30;;;0.30;;
15573;SDS011;7888;46.748;8.102;2023-04-24T07:39:22;0.20;;;0.20;;
15573;SDS011;7888;46.748;8.102;2023-04-24T07:41:49;0.40;;;0.40;;
15573;SDS011;7888;46.748;8.102;2023-04-24T07:44:15;0.43;;;0.37;;
15573;SDS011;7888;46.748;8.102;2023-04-24T07:46:42;0.30;;;0.30;;
15573;SDS011;7888;46.748;8.102;2023-04-24T07:49:08;0.30;;;0.13;;
15573;SDS011;7888;46.748;8.102;2023-04-24T07:51:35;0.30;;;0.27;;
15573;SDS011;7888;46.748;8.102;2023-04-24T07:54:04;0.20;;;0.20;;
15573;SDS011;7888;46.748;8.102;2023-04-24T07:56:33;0.70;;;0.20;;
15573;SDS011;7888;46.748;8.102;2023-04-24T07:59:03;0.67;;;0.30;;
15573;SDS011;7888;46.748;8.102;2023-04-24T08:01:30;1.13;;;0.30;;
15573;SDS011;7888;46.748;8.102;2023-04-24T08:03:56;0.57;;;0.20;;
15573;SDS011;7888;46.748;8.102;2023-04-24T08:06:23;0.20;;;0.20;;
15573;SDS011;7888;46.748;8.102;2023-04-24T08:08:50;0.20;;;0.20;;
15573;SDS011;7888;46.748;8.102;2023-04-24T08:11:17;0.10;;;0.10;;
15573;SDS011;7888;46.748;8.102;2023-04-24T08:13:43;0.47;;;0.30;;
15573;SDS011;7888;46.748;8.102;2023-04-24T08:16:09;0.87;;;0.20;;
15573;SDS011;7888;46.748;8.102;2023-04-24T08:18:35;0.10;;;0.10;;
15573;SDS011;7888;46.748;8.102;2023-04-24T08:21:02;0.60;;;0.30;;
15573;SDS011;7888;46.748;8.102;2023-04-24T08:23:28;0.17;;;0.17;;
15573;SDS011;7888;46.748;8.102;2023-04-24T08:25:55;0.20;;;0.20;;
15573;SDS011;7888;46.748;8.102;2023-04-24T08:28:22;1.17;;;0.30;;
15573;SDS011;7888;46.748;8.102;2023-04-24T08:30:48;0.10;;;0.10;;
15573;SDS011;7888;46.748;8.102;2023-04-24T08:33:20;0.10;;;0.10;;
15573;SDS011;7888;46.748;8.102;2023-04-24T08:35:48;0.50;;;0.20;;
15573;SDS011;7888;46.748;8.102;2023-04-24T08:38:15;0.17;;;0.17;;
15573;SDS011;7888;46.748;8.102;2023-04-24T08:40:41;0.30;;;0.27;;
15573;SDS011;7888;46.748;8.102;2023-04-24T08:43:08;0.37;;;0.20;;
15573;SDS011;7888;46.748;8.102;2023-04-24T08:45:35;0.20;;;0.20;;
15573;SDS011;7888;46.748;8.102;2023-04-24T08:48:02;0.40;;;0.20;;
15573;SDS011;7888;46.748;8.102;2023-04-24T08:50:29;0.57;;;0.30;;
15573;SDS011;7888;46.748;8.102;2023-04-24T08:52:56;0.30;;;0.30;;
15573;SDS011;7888;46.748;8.102;2023-04-24T08:55:23;0.63;;;0.20;;
15573;SDS011;7888;46.748;8.102;2023-04-24T08:57:51;0.50;;;0.40;;
15573;SDS011;7888;46.748;8.102;2023-04-24T09:00:19;0.40;;;0.37;;
15573;SDS011;7888;46.748;8.102;2023-04-24T09:02:46;0.37;;;0.37;;
15573;SDS011;7888;46.748;8.102;2023-04-24T09:05:16;0.30;;;0.30;;
15573;SDS011;7888;46.748;8.102;2023-04-24T09:07:47;0.40;;;0.30;;
15573;SDS011;7888;46.748;8.102;2023-04-24T09:10:19;0.20;;;0.20;;
15573;SDS011;7888;46.748;8.102;2023-04-24T09:12:47;0.20;;;0.20;;
15573;SDS011;7888;46.748;8.102;2023-04-24T09:15:16;0.60;;;0.40;;
15573;SDS011;7888;46.748;8.102;2023-04-24T09:17:42;4.43;;;0.50;;
15573;SDS011;7888;46.748;8.102;2023-04-24T09:20:09;0.27;;;0.27;;
15573;SDS011;7888;46.748;8.102;2023-04-24T09:22:36;1.17;;;0.30;;
15573;SDS011;7888;46.748;8.102;2023-04-24T09:25:06;0.87;;;0.70;;
15573;SDS011;7888;46.748;8.102;2023-04-24T09:27:34;0.57;;;0.40;;
15573;SDS011;7888;46.748;8.102;2023-04-24T09:30:00;2.33;;;0.93;;
15573;SDS011;7888;46.748;8.102;2023-04-24T09:32:27;1.73;;;1.43;;
15573;SDS011;7888;46.748;8.102;2023-04-24T09:37:44;1.63;;;0.77;;
15573;SDS011;7888;46.748;8.102;2023-04-24T09:40:13;0.40;;;0.40;;
15573;SDS011;7888;46.748;8.102;2023-04-24T09:42:54;0.50;;;0.50;;
15573;SDS011;7888;46.748;8.102;2023-04-24T09:45:27;0.30;;;0.30;;
15573;SDS011;7888;46.748;8.102;2023-04-24T09:48:01;0.63;;;0.60;;
15573;SDS011;7888;46.748;8.102;2023-04-24T09:50:29;0.60;;;0.50;;
15573;SDS011;7888;46.748;8.102;2023-04-24T09:53:01;0.53;;;0.30;;
15573;SDS011;7888;46.748;8.102;2023-04-24T09:55:29;0.33;;;0.33;;
15573;SDS011;7888;46.748;8.102;2023-04-24T09:57:56;0.93;;;0.40;;
15573;SDS011;7888;46.748;8.102;2023-04-24T10:00:29;0.50;;;0.40;;
15573;SDS011;7888;46.748;8.102;2023-04-24T10:03:00;0.80;;;0.40;;
15573;SDS011;7888;46.748;8.102;2023-04-24T10:05:30;0.30;;;0.30;;
15573;SDS011;7888;46.748;8.102;2023-04-24T10:07:59;0.40;;;0.40;;
15573;SDS011;7888;46.748;8.102;2023-04-24T10:10:43;0.80;;;0.47;;
15573;SDS011;7888;46.748;8.102;2023-04-24T10:13:11;0.40;;;0.40;;
15573;SDS011;7888;46.748;8.102;2023-04-24T10:15:40;0.70;;;0.47;;
15573;SDS011;7888;46.748;8.102;2023-04-24T10:18:07;0.70;;;0.60;;
15573;SDS011;7888;46.748;8.102;2023-04-24T10:20:35;1.00;;;0.47;;
15573;SDS011;7888;46.748;8.102;2023-04-24T10:23:04;0.83;;;0.40;;
15573;SDS011;7888;46.748;8.102;2023-04-24T10:25:31;0.60;;;0.50;;
15573;SDS011;7888;46.748;8.102;2023-04-24T10:28:00;0.73;;;0.30;;
15573;SDS011;7888;46.748;8.102;2023-04-24T10:30:29;0.50;;;0.40;;
15573;SDS011;7888;46.748;8.102;2023-04-24T10:33:00;0.67;;;0.53;;
15573;SDS011;7888;46.748;8.102;2023-04-24T10:35:40;1.13;;;0.40;;
15573;SDS011;7888;46.748;8.102;2023-04-24T10:38:14;1.03;;;0.50;;
15573;SDS011;7888;46.748;8.102;2023-04-24T10:40:49;0.40;;;0.40;;
15573;SDS011;7888;46.748;8.102;2023-04-24T10:43:16;2.07;;;0.43;;
15573;SDS011;7888;46.748;8.102;2023-04-24T10:45:59;1.70;;;0.50;;
15573;SDS011;7888;46.748;8.102;2023-04-24T10:48:31;0.47;;;0.47;;
15573;SDS011;7888;46.748;8.102;2023-04-24T10:50:57;0.57;;;0.57;;
15573;SDS011;7888;46.748;8.102;2023-04-24T10:53:24;1.47;;;0.60;;
15573;SDS011;7888;46.748;8.102;2023-04-24T10:55:57;1.50;;;0.57;;
15573;SDS011;7888;46.748;8.102;2023-04-24T10:58:44;1.27;;;0.70;;
15573;SDS011;7888;46.748;8.102;2023-04-24T11:01:33;1.33;;;0.70;;
15573;SDS011;7888;46.748;8.102;2023-04-24T11:04:03;1.90;;;0.60;;
15573;SDS011;7888;46.748;8.102;2023-04-24T11:06:32;0.40;;;0.40;;
15573;SDS011;7888;46.748;8.102;2023-04-24T11:09:04;0.63;;;0.40;;
15573;SDS011;7888;46.748;8.102;2023-04-24T11:11:33;0.50;;;0.50;;
15573;SDS011;7888;46.748;8.102;2023-04-24T11:14:05;0.50;;;0.50;;
15573;SDS011;7888;46.748;8.102;2023-04-24T11:16:43;1.50;;;0.50;;
15573;SDS011;7888;46.748;8.102;2023-04-24T11:19:23;0.63;;;0.50;;
15573;SDS011;7888;46.748;8.102;2023-04-24T11:21:55;1.53;;;0.60;;
15573;SDS011;7888;46.748;8.102;2023-04-24T11:24:49;0.43;;;0.43;;
15573;SDS011;7888;46.748;8.102;2023-04-24T11:27:19;0.50;;;0.50;;
15573;SDS011;7888;46.748;8.102;2023-04-24T11:32:25;0.50;;;0.50;;
15573;SDS011;7888;46.748;8.102;2023-04-24T11:35:20;0.50;;;0.50;;
15573;SDS011;7888;46.748;8.102;2023-04-24T11:37:53;2.67;;;0.70;;
15573;SDS011;7888;46.748;8.102;2023-04-24T11:40:20;0.80;;;0.60;;
15573;SDS011;7888;46.748;8.102;2023-04-24T11:42:51;0.40;;;0.37;;
15573;SDS011;7888;46.748;8.102;2023-04-24T11:45:22;0.83;;;0.80;;
15573;SDS011;7888;46.748;8.102;2023-04-24T11:47:55;2.30;;;0.60;;
15573;SDS011;7888;46.748;8.102;2023-04-24T11:50:23;0.50;;;0.50;;
15573;SDS011;7888;46.748;8.102;2023-04-24T11:52:52;1.33;;;0.80;;
15573;SDS011;7888;46.748;8.102;2023-04-24T11:57:45;1.20;;;0.60;;
15573;SDS011;7888;46.748;8.102;2023-04-24T12:00:17;1.37;;;0.40;;
15573;SDS011;7888;46.748;8.102;2023-04-24T12:02:46;0.60;;;0.60;;
15573;SDS011;7888;46.748;8.102;2023-04-24T12:05:23;0.77;;;0.60;;
15573;SDS011;7888;46.748;8.102;2023-04-24T12:07:51;0.60;;;0.60;;
15573;SDS011;7888;46.748;8.102;2023-04-24T12:10:22;0.50;;;0.50;;
15573;SDS011;7888;46.748;8.102;2023-04-24T12:12:51;0.80;;;0.57;;
15573;SDS011;7888;46.748;8.102;2023-04-24T12:15:17;0.73;;;0.60;;
15573;SDS011;7888;46.748;8.102;2023-04-24T12:17:46;1.00;;;0.50;;
15573;SDS011;7888;46.748;8.102;2023-04-24T12:20:12;1.40;;;0.50;;
15573;SDS011;7888;46.748;8.102;2023-04-24T12:22:43;0.47;;;0.40;;
15573;SDS011;7888;46.748;8.102;2023-04-24T12:25:12;1.00;;;0.40;;
15573;SDS011;7888;46.748;8.102;2023-04-24T12:27:40;1.13;;;0.50;;
15573;SDS011;7888;46.748;8.102;2023-04-24T12:30:10;0.87;;;0.50;;
15573;SDS011;7888;46.748;8.102;2023-04-24T12:32:45;0.77;;;0.50;;
15573;SDS011;7888;46.748;8.102;2023-04-24T12:35:13;2.13;;;0.70;;
15573;SDS011;7888;46.748;8.102;2023-04-24T12:37:45;0.80;;;0.50;;
15573;SDS011;7888;46.748;8.102;2023-04-24T12:40:12;1.00;;;0.50;;
15573;SDS011;7888;46.748;8.102;2023-04-24T12:42:49;1.23;;;0.60;;
15573;SDS011;7888;46.748;8.102;2023-04-24T12:45:17;2.23;;;0.80;;
15573;SDS011;7888;46.748;8.102;2023-04-24T12:47:45;0.83;;;0.43;;
15573;SDS011;7888;46.748;8.102;2023-04-24T12:50:12;0.50;;;0.40;;
15573;SDS011;7888;46.748;8.102;2023-04-24T12:52:41;1.80;;;0.60;;
15573;SDS011;7888;46.748;8.102;2023-04-24T12:55:08;1.10;;;0.70;;
15573;SDS011;7888;46.748;8.102;2023-04-24T12:57:35;0.70;;;0.60;;
15573;SDS011;7888;46.748;8.102;2023-04-24T13:00:03;2.87;;;0.40;;
15573;SDS011;7888;46.748;8.102;2023-04-24T13:02:33;1.20;;;0.60;;
15573;SDS011;7888;46.748;8.102;2023-04-24T13:05:00;1.03;;;0.70;;
15573;SDS011;7888;46.748;8.102;2023-04-24T13:07:27;0.80;;;0.70;;
15573;SDS011;7888;46.748;8.102;2023-04-24T13:09:54;0.40;;;0.40;;
15573;SDS011;7888;46.748;8.102;2023-04-24T13:12:22;1.63;;;0.80;;
15573;SDS011;7888;46.748;8.102;2023-04-24T13:14:49;0.70;;;0.40;;
15573;SDS011;7888;46.748;8.102;2023-04-24T13:17:15;1.45;;;0.60;;
15573;SDS011;7888;46.748;8.102;2023-04-24T13:19:42;0.50;;;0.40;;
15573;SDS011;7888;46.748;8.102;2023-04-24T13:22:10;1.30;;;0.77;;
15573;SDS011;7888;46.748;8.102;2023-04-24T13:24:38;0.43;;;0.43;;
15573;SDS011;7888;46.748;8.102;2023-04-24T13:27:06;1.10;;;0.63;;
15573;SDS011;7888;46.748;8.102;2023-04-24T13:29:32;0.90;;;0.47;;
15573;SDS011;7888;46.748;8.102;2023-04-24T13:31:58;0.50;;;0.50;;
15573;SDS011;7888;46.748;8.102;2023-04-24T13:34:25;0.80;;;0.60;;
15573;SDS011;7888;46.748;8.102;2023-04-24T13:36:52;1.73;;;0.77;;
15573;SDS011;7888;46.748;8.102;2023-04-24T13:39:21;1.80;;;0.70;;
15573;SDS011;7888;46.748;8.102;2023-04-24T13:41:48;0.90;;;0.70;;
15573;SDS011;7888;46.748;8.102;2023-04-24T13:44:15;0.80;;;0.70;;
15573;SDS011;7888;46.748;8.102;2023-04-24T13:46:43;1.53;;;0.93;;
15573;SDS011;7888;46.748;8.102;2023-04-24T13:49:14;0.83;;;0.67;;
15573;SDS011;7888;46.748;8.102;2023-04-24T14:53:51;0.50;;;0.50;;
15573;SDS011;7888;46.748;8.102;2023-04-24T14:56:17;1.92;;;0.80;;
15573;SDS011;7888;46.748;8.102;2023-04-24T14:58:43;0.60;;;0.50;;
15573;SDS011;7888;46.748;8.102;2023-04-24T15:01:10;0.73;;;0.52;;
15573;SDS011;7888;46.748;8.102;2023-04-24T15:03:36;0.87;;;0.50;;
15573;SDS011;7888;46.748;8.102;2023-04-24T15:06:02;1.02;;;0.63;;
15573;SDS011;7888;46.748;8.102;2023-04-24T15:08:28;1.10;;;0.70;;
15573;SDS011;7888;46.748;8.102;2023-04-24T15:10:53;0.70;;;0.70;;
15573;SDS011;7888;46.748;8.102;2023-04-24T15:13:20;5.05;;;2.33;;
15573;SDS011;7888;46.748;8.102;2023-04-24T15:15:46;4.22;;;1.67;;
15573;SDS011;7888;46.748;8.102;2023-04-24T15:18:12;1.40;;;0.70;;
15573;SDS011;7888;46.748;8.102;2023-04-24T15:20:38;0.95;;;0.70;;
15573;SDS011;7888;46.748;8.102;2023-04-24T15:23:08;0.85;;;0.60;;
15573;SDS011;7888;46.748;8.102;2023-04-24T15:25:34;0.57;;;0.50;;
15573;SDS011;7888;46.748;8.102;2023-04-24T15:28:01;0.68;;;0.50;;
15573;SDS011;7888;46.748;8.102;2023-04-24T15:30:29;1.23;;;0.50;;
15573;SDS011;7888;46.748;8.102;2023-04-24T15:32:55;0.85;;;0.50;;
15573;SDS011;7888;46.748;8.102;2023-04-24T15:35:21;1.48;;;0.70;;
15573;SDS011;7888;46.748;8.102;2023-04-24T15:37:48;0.57;;;0.57;;
15573;SDS011;7888;46.748;8.102;2023-04-24T15:40:14;1.00;;;0.50;;
15573;SDS011;7888;46.748;8.102;2023-04-24T15:42:41;0.70;;;0.50;;
15573;SDS011;7888;46.748;8.102;2023-04-24T15:45:08;0.70;;;0.60;;
15573;SDS011;7888;46.748;8.102;2023-04-24T15:47:35;1.40;;;0.60;;
15573;SDS011;7888;46.748;8.102;2023-04-24T15:50:02;0.73;;;0.50;;
15573;SDS011;7888;46.748;8.102;2023-04-24T15:52:29;1.00;;;0.60;;
15573;SDS011;7888;46.748;8.102;2023-04-24T15:54:55;0.97;;;0.77;;
15573;SDS011;7888;46.748;8.102;2023-04-24T15:57:21;0.80;;;0.70;;
15573;SDS011;7888;46.748;8.102;2023-04-24T15:59:47;1.37;;;0.60;;
15573;SDS011;7888;46.748;8.102;2023-04-24T16:02:13;1.43;;;0.50;;
15573;SDS011;7888;46.748;8.102;2023-04-24T16:04:44;0.50;;;0.50;;
15573;SDS011;7888;46.748;8.102;2023-04-24T16:07:12;0.67;;;0.63;;
15573;SDS011;7888;46.748;8.102;2023-04-24T16:09:40;1.17;;;0.50;;
15573;SDS011;7888;46.748;8.102;2023-04-24T16:12:06;0.37;;;0.37;;